Time;durP1;ratioP1;P1;durP2;ratioP2;P2;SDS_P1;SDS_P2;PMS_P1;PMS_P2;Temp;Humidity;BMP_temperature;BMP_pressure;BME280_temperature;BME280_humidity;BME280_pressure;Samples;Min_cycle;Max_cycle;Signal;HPM_P1;HPM_P2
2022/07/15 00:02:26;;;;;;;6.30;3.00;;;10.00;84.90;;;;;;5008653;28;20084;-65
2022/07/15 00:04:54;;;;;;;8.35;3.03;;;10.10;84.90;;;;;;5008599;28;20025;-64
2022/07/15 00:07:21;;;;;;;7.68;3.30;;;10.20;84.60;;;;;;5011353;28;20037;-64
2022/07/15 00:12:34;;;;;;;6.75;2.65;;;10.40;83.20;;;;;;5008540;28;20102;-65
2022/07/15 00:15:01;;;;;;;4.88;2.40;;;10.60;82.10;;;;;;5010087;28;20437;-65
2022/07/15 00:17:28;;;;;;;8.07;2.72;;;10.70;82.00;;;;;;5010338;28;20030;-65
2022/07/15 00:19:56;;;;;;;6.50;3.08;;;10.80;82.10;;;;;;5010259;28;20108;-64
2022/07/15 00:22:23;;;;;;;4.03;2.05;;;10.90;82.30;;;;;;5001421;28;20475;-64
2022/07/15 00:24:50;;;;;;;6.53;3.35;;;11.00;80.40;;;;;;5009252;28;20048;-65
2022/07/15 00:27:18;;;;;;;6.03;3.20;;;11.10;81.60;;;;;;5010888;28;20483;-63
2022/07/15 00:29:45;;;;;;;7.32;2.63;;;11.20;81.00;;;;;;5011045;28;20029;-63
2022/07/15 00:32:13;;;;;;;5.93;2.20;;;11.30;79.70;;;;;;5010750;28;20029;-63
2022/07/15 00:34:40;;;;;;;4.28;2.03;;;11.40;80.80;;;;;;5010553;28;20037;-60
2022/07/15 00:37:07;;;;;;;4.78;1.73;;;11.50;79.70;;;;;;5010856;28;20025;-60
2022/07/15 00:39:35;;;;;;;3.70;1.15;;;11.60;80.10;;;;;;5020407;28;20029;-60
2022/07/15 00:42:03;;;;;;;2.88;1.38;;;11.80;76.80;;;;;;5026995;28;20026;-61
2022/07/15 00:44:31;;;;;;;3.25;1.17;;;12.00;77.40;;;;;;5005014;28;20053;-61
2022/07/15 00:47:00;;;;;;;8.20;1.20;;;12.00;73.60;;;;;;5007214;28;20129;-62
2022/07/15 00:49:27;;;;;;;3.75;1.10;;;12.10;75.00;;;;;;4999302;28;20084;-60
2022/07/15 00:51:57;;;;;;;7.07;2.95;;;12.20;73.50;;;;;;5001304;28;20117;-64
2022/07/15 00:54:26;;;;;;;4.43;1.27;;;12.30;74.20;;;;;;5011366;28;20128;-66
2022/07/15 00:56:56;;;;;;;3.50;0.90;;;12.40;73.60;;;;;;5007553;28;20096;-66
2022/07/15 00:59:31;;;;;;;3.75;1.10;;;12.60;73.60;;;;;;5010118;28;20026;-67
2022/07/15 01:01:59;;;;;;;1.65;0.70;;;12.70;71.80;;;;;;5007164;28;20025;-66
2022/07/15 01:04:28;;;;;;;3.15;1.38;;;12.70;71.80;;;;;;5003934;28;20018;-65
2022/07/15 01:06:55;;;;;;;7.68;2.42;;;12.90;71.40;;;;;;5001275;28;20022;-65
2022/07/15 01:09:22;;;;;;;2.17;0.55;;;12.90;70.60;;;;;;5000790;28;20054;-65
2022/07/15 01:11:50;;;;;;;6.13;2.42;;;13.00;68.70;;;;;;5005551;28;20034;-65
2022/07/15 01:14:18;;;;;;;2.42;0.60;;;13.10;69.80;;;;;;5006052;28;20545;-65
2022/07/15 01:16:45;;;;;;;3.10;0.70;;;13.10;68.30;;;;;;4999396;28;20105;-61
2022/07/15 01:19:12;;;;;;;4.13;1.25;;;13.10;68.30;;;;;;4997442;28;20424;-60
2022/07/15 01:21:39;;;;;;;6.65;1.83;;;13.20;68.50;;;;;;5000192;28;20037;-59
2022/07/15 01:24:07;;;;;;;2.55;0.55;;;13.30;68.00;;;;;;4996874;28;20514;-59
2022/07/15 01:26:34;;;;;;;1.52;0.57;;;13.30;68.20;;;;;;4996973;28;20033;-59
2022/07/15 01:29:01;;;;;;;3.05;1.33;;;13.40;66.70;;;;;;4998928;28;20022;-58
2022/07/15 01:31:28;;;;;;;3.17;1.65;;;13.40;66.40;;;;;;5002806;28;20064;-60
2022/07/15 01:33:56;;;;;;;2.78;1.23;;;13.50;66.90;;;;;;4998507;28;20406;-59
2022/07/15 01:36:23;;;;;;;1.48;0.80;;;13.60;66.60;;;;;;4999187;28;20853;-60
2022/07/15 01:38:50;;;;;;;1.42;0.50;;;13.70;66.40;;;;;;4994904;28;20030;-60
2022/07/15 01:41:18;;;;;;;3.05;0.70;;;13.80;66.80;;;;;;4998365;28;20053;-59
2022/07/15 01:43:45;;;;;;;0.63;0.40;;;13.90;65.00;;;;;;5004860;28;20487;-60
2022/07/15 01:46:12;;;;;;;3.03;0.70;;;14.00;64.30;;;;;;5003042;28;20046;-59
2022/07/15 01:51:26;;;;;;;2.10;0.98;;;14.00;65.00;;;;;;4996887;28;20037;-60
2022/07/15 01:53:53;;;;;;;1.52;0.68;;;14.10;63.70;;;;;;4995793;28;20029;-59
2022/07/15 01:56:20;;;;;;;4.07;0.70;;;14.20;63.00;;;;;;5003698;28;20556;-60
2022/07/15 01:58:47;;;;;;;2.63;0.80;;;14.30;63.70;;;;;;4997207;28;20111;-59
2022/07/15 02:01:17;;;;;;;2.47;0.70;;;14.30;61.30;;;;;;4999409;28;20447;-59
2022/07/15 02:03:45;;;;;;;3.45;0.65;;;14.30;63.10;;;;;;5003474;28;20026;-60
2022/07/15 02:06:12;;;;;;;0.80;0.52;;;14.40;62.50;;;;;;5000814;28;20133;-61
2022/07/15 02:08:40;;;;;;;2.85;0.57;;;14.50;61.20;;;;;;5001484;28;20064;-60
2022/07/15 02:11:07;;;;;;;1.05;0.47;;;14.60;62.00;;;;;;5003665;28;20117;-60
2022/07/15 02:13:34;;;;;;;2.50;0.80;;;14.70;62.60;;;;;;5000466;28;20080;-61
2022/07/15 02:16:02;;;;;;;2.30;0.50;;;14.70;60.80;;;;;;5002754;28;20465;-59
2022/07/15 02:18:30;;;;;;;3.83;0.80;;;14.80;61.80;;;;;;5003375;28;20034;-60
2022/07/15 02:20:57;;;;;;;1.00;0.43;;;14.90;61.80;;;;;;5008721;28;20486;-60
2022/07/15 02:23:24;;;;;;;2.33;1.20;;;15.00;61.20;;;;;;5004361;28;20084;-60
2022/07/15 02:25:51;;;;;;;2.40;0.55;;;15.00;60.60;;;;;;5004473;28;20050;-60
2022/07/15 02:28:18;;;;;;;4.28;0.57;;;15.10;60.60;;;;;;5008082;28;20134;-60
2022/07/15 02:30:46;;;;;;;1.92;0.68;;;15.10;61.30;;;;;;5006790;28;20018;-59
2022/07/15 02:33:14;;;;;;;2.67;0.55;;;15.20;59.80;;;;;;5008975;28;20095;-60
2022/07/15 02:35:42;;;;;;;3.05;0.70;;;15.20;56.90;;;;;;5006303;28;20066;-70
2022/07/15 02:38:10;;;;;;;3.83;0.50;;;15.20;58.00;;;;;;5006252;28;20038;-67
2022/07/15 02:40:37;;;;;;;2.42;0.95;;;15.30;60.70;;;;;;5014199;28;20025;-66
2022/07/15 02:43:04;;;;;;;1.08;0.68;;;15.40;60.00;;;;;;5008659;28;20021;-67
2022/07/15 02:45:36;;;;;;;1.35;0.95;;;15.50;58.90;;;;;;5006674;28;20033;-67
2022/07/15 02:48:04;;;;;;;1.08;0.43;;;15.60;59.00;;;;;;5007271;28;20053;-67
2022/07/15 02:50:31;;;;;;;2.35;0.63;;;15.70;58.50;;;;;;5007696;28;20080;-65
2022/07/15 02:52:59;;;;;;;1.70;0.70;;;15.70;58.60;;;;;;5009257;28;20569;-67
2022/07/15 02:55:26;;;;;;;2.38;0.73;;;15.60;56.60;;;;;;5010155;28;20030;-65
2022/07/15 02:57:54;;;;;;;1.02;0.55;;;15.70;58.10;;;;;;5010995;28;20105;-66
2022/07/15 03:00:22;;;;;;;2.80;1.05;;;15.70;56.60;;;;;;5008154;28;20022;-66
2022/07/15 03:02:49;;;;;;;3.17;0.70;;;15.70;57.90;;;;;;5010347;28;20018;-66
2022/07/15 03:05:17;;;;;;;4.78;0.77;;;15.70;55.40;;;;;;5008991;28;20038;-67
2022/07/15 03:07:45;;;;;;;0.90;0.50;;;15.70;55.80;;;;;;5013277;28;20107;-65
2022/07/15 03:10:13;;;;;;;1.52;0.90;;;15.80;57.10;;;;;;5004486;28;20549;-64
2022/07/15 03:12:41;;;;;;;0.77;0.60;;;15.80;55.60;;;;;;5005520;28;20165;-65
2022/07/15 03:15:10;;;;;;;2.17;0.80;;;15.80;54.40;;;;;;5005447;28;20038;-65
2022/07/15 03:17:39;;;;;;;1.85;0.55;;;15.80;55.10;;;;;;5006761;28;20033;-66
2022/07/15 03:20:08;;;;;;;1.23;0.50;;;15.80;56.50;;;;;;5006950;28;20026;-68
2022/07/15 03:22:35;;;;;;;0.95;0.40;;;15.90;54.30;;;;;;5004831;28;20641;-66
2022/07/15 03:25:03;;;;;;;2.15;0.80;;;15.80;54.40;;;;;;5007504;28;20070;-61
2022/07/15 03:27:30;;;;;;;1.88;0.77;;;15.60;54.50;;;;;;5007624;28;20052;-59
2022/07/15 03:29:58;;;;;;;1.23;0.60;;;15.60;53.70;;;;;;5007666;28;20061;-59
2022/07/15 03:32:25;;;;;;;4.88;0.85;;;15.60;55.40;;;;;;5002608;28;20017;-58
2022/07/15 03:34:52;;;;;;;5.18;1.02;;;15.60;54.10;;;;;;5005026;28;20049;-59
2022/07/15 03:37:20;;;;;;;1.70;0.47;;;15.70;53.70;;;;;;5004601;28;20365;-58
2022/07/15 03:39:47;;;;;;;1.38;0.50;;;15.80;52.70;;;;;;5005439;28;20034;-59
2022/07/15 03:42:14;;;;;;;3.10;0.50;;;15.70;52.60;;;;;;5006752;28;20424;-59
2022/07/15 03:44:41;;;;;;;1.77;0.47;;;15.60;54.50;;;;;;5006747;28;20034;-60
2022/07/15 03:47:08;;;;;;;1.73;0.50;;;15.70;54.50;;;;;;5002894;28;20049;-58
2022/07/15 03:49:36;;;;;;;1.65;0.47;;;15.80;53.10;;;;;;5008142;28;20021;-58
2022/07/15 03:52:03;;;;;;;2.63;0.57;;;15.80;52.10;;;;;;5007688;28;20030;-60
2022/07/15 03:54:30;;;;;;;1.38;0.52;;;15.70;52.00;;;;;;5003609;28;20210;-59
2022/07/15 03:56:58;;;;;;;2.90;0.70;;;15.70;49.60;;;;;;5004865;28;20026;-62
2022/07/15 03:59:26;;;;;;;1.77;0.60;;;15.60;51.60;;;;;;5008143;28;20057;-60
2022/07/15 04:01:53;;;;;;;0.82;0.45;;;15.60;50.90;;;;;;5006872;28;20487;-60
2022/07/15 04:04:20;;;;;;;0.60;0.40;;;15.60;49.60;;;;;;5006180;28;20033;-59
2022/07/15 04:06:47;;;;;;;3.50;0.50;;;15.50;49.10;;;;;;5007051;28;20287;-59
2022/07/15 04:09:15;;;;;;;4.50;0.60;;;15.50;49.80;;;;;;5005844;28;20403;-59
2022/07/15 04:11:42;;;;;;;4.70;0.80;;;15.50;50.00;;;;;;5007129;28;20521;-58
2022/07/15 04:14:11;;;;;;;2.45;0.60;;;15.40;50.40;;;;;;5001585;28;20550;-59
2022/07/15 04:16:38;;;;;;;0.90;0.70;;;15.50;52.40;;;;;;5005069;28;20033;-58
2022/07/15 04:19:06;;;;;;;2.83;0.55;;;15.60;51.50;;;;;;5002647;28;20018;-59
2022/07/15 04:21:33;;;;;;;1.92;0.85;;;15.50;50.80;;;;;;5001087;28;20041;-58
2022/07/15 04:24:01;;;;;;;0.85;0.57;;;15.40;51.50;;;;;;5003420;28;20017;-60
2022/07/15 04:26:28;;;;;;;1.23;0.47;;;15.40;51.40;;;;;;5022800;28;20029;-60
2022/07/15 04:28:56;;;;;;;1.60;0.90;;;15.40;51.70;;;;;;4997676;28;20120;-60
2022/07/15 04:31:23;;;;;;;2.25;0.60;;;15.40;51.60;;;;;;5012293;28;20030;-60
2022/07/15 04:33:51;;;;;;;4.28;0.52;;;15.50;50.00;;;;;;5016747;28;20067;-61
2022/07/15 04:36:21;;;;;;;2.22;1.67;;;15.40;50.60;;;;;;5020063;28;20501;-60
2022/07/15 04:38:48;;;;;;;1.98;0.47;;;15.40;50.60;;;;;;5011103;28;20099;-58
2022/07/15 04:41:15;;;;;;;3.85;0.90;;;15.40;49.70;;;;;;5012900;28;20136;-60
2022/07/15 04:43:43;;;;;;;1.25;0.50;;;15.30;50.40;;;;;;5017590;28;20473;-59
2022/07/15 04:46:10;;;;;;;10.43;0.88;;;15.30;50.10;;;;;;5008024;28;20113;-59
2022/07/15 04:51:23;;;;;;;4.47;0.85;;;15.20;49.50;;;;;;5009766;28;20033;-60
2022/07/15 04:53:50;;;;;;;2.30;0.47;;;15.20;51.50;;;;;;5007342;28;20026;-59
2022/07/15 04:56:17;;;;;;;1.23;0.52;;;15.20;49.90;;;;;;5008305;28;20595;-59
2022/07/15 04:58:48;;;;;;;1.70;0.57;;;15.10;48.70;;;;;;5003214;28;20037;-59
2022/07/15 05:01:15;;;;;;;4.15;0.98;;;15.10;49.40;;;;;;5010738;28;20109;-61
2022/07/15 05:03:42;;;;;;;2.72;0.77;;;15.00;50.50;;;;;;5011156;28;20652;-60
2022/07/15 05:06:13;;;;;;;1.58;0.50;;;15.00;50.20;;;;;;5015690;28;20033;-60
2022/07/15 05:08:40;;;;;;;2.67;0.70;;;15.00;50.30;;;;;;5008517;28;20037;-62
2022/07/15 05:11:07;;;;;;;5.18;0.90;;;15.00;50.00;;;;;;5022527;28;20033;-63
2022/07/15 05:13:37;;;;;;;5.38;0.93;;;15.00;49.70;;;;;;5019343;28;20045;-62
2022/07/15 05:16:05;;;;;;;1.50;0.65;;;15.00;49.30;;;;;;5007832;28;20038;-62
2022/07/15 05:18:32;;;;;;;2.08;0.55;;;14.90;49.20;;;;;;5007439;28;20105;-63
2022/07/15 05:21:00;;;;;;;1.15;0.50;;;14.80;49.10;;;;;;5009740;28;20030;-63
2022/07/15 05:23:28;;;;;;;1.25;0.50;;;14.80;47.80;;;;;;5013454;28;20030;-63
2022/07/15 05:25:55;;;;;;;2.20;0.50;;;14.70;48.20;;;;;;5016512;28;20032;-63
2022/07/15 05:28:22;;;;;;;3.50;0.77;;;14.60;48.30;;;;;;5011129;28;20032;-63
2022/07/15 05:30:50;;;;;;;2.70;0.60;;;14.40;48.00;;;;;;5004863;28;20040;-63
2022/07/15 05:33:17;;;;;;;2.55;1.15;;;14.30;48.60;;;;;;5018421;28;20022;-64
2022/07/15 05:35:45;;;;;;;1.83;0.50;;;14.30;48.90;;;;;;5012710;28;20400;-63
2022/07/15 05:38:12;;;;;;;2.80;0.80;;;14.30;49.10;;;;;;5017411;28;20029;-63
2022/07/15 05:40:40;;;;;;;4.55;0.55;;;14.20;50.30;;;;;;5016262;28;20034;-63
2022/07/15 05:43:07;;;;;;;1.25;0.50;;;14.20;52.10;;;;;;5009521;28;20034;-64
2022/07/15 05:45:34;;;;;;;1.77;0.80;;;14.10;50.50;;;;;;5024095;28;20026;-64
2022/07/15 05:48:01;;;;;;;0.75;0.50;;;14.00;50.30;;;;;;5006990;28;20081;-64
2022/07/15 05:50:29;;;;;;;2.80;0.80;;;13.90;51.00;;;;;;5006850;28;20030;-64
2022/07/15 05:52:56;;;;;;;3.58;0.63;;;13.90;51.60;;;;;;5011024;28;20117;-63
2022/07/15 05:55:23;;;;;;;2.38;0.70;;;14.00;52.30;;;;;;5010464;28;20049;-63
2022/07/15 05:57:50;;;;;;;2.10;0.55;;;14.00;52.10;;;;;;5009799;28;20041;-63
2022/07/15 06:00:18;;;;;;;4.97;0.82;;;14.00;51.10;;;;;;5017180;28;20620;-63
2022/07/15 06:02:45;;;;;;;1.67;0.77;;;13.90;52.70;;;;;;5007915;28;20022;-63
2022/07/15 06:05:13;;;;;;;1.85;0.50;;;13.80;53.20;;;;;;5009058;28;20096;-63
2022/07/15 06:07:41;;;;;;;1.23;0.50;;;13.70;53.70;;;;;;5014055;28;20474;-62
2022/07/15 06:10:09;;;;;;;1.27;0.60;;;13.50;53.90;;;;;;5008409;28;20069;-62
2022/07/15 06:12:36;;;;;;;0.98;0.65;;;13.30;54.30;;;;;;5010947;28;20033;-63
2022/07/15 06:15:03;;;;;;;1.77;1.13;;;13.20;55.00;;;;;;5009231;28;20107;-63
2022/07/15 06:17:31;;;;;;;3.42;0.77;;;13.10;55.50;;;;;;5008123;28;20470;-63
2022/07/15 06:19:58;;;;;;;1.85;0.60;;;13.00;55.60;;;;;;5008751;28;20034;-67
2022/07/15 06:22:25;;;;;;;1.10;0.57;;;12.90;56.40;;;;;;5007803;28;20095;-63
2022/07/15 06:24:53;;;;;;;1.48;0.68;;;12.80;57.10;;;;;;5006608;28;20034;-63
2022/07/15 06:27:21;;;;;;;1.70;0.68;;;12.70;57.10;;;;;;5005938;28;20025;-62
2022/07/15 06:29:50;;;;;;;3.50;1.45;;;12.50;58.10;;;;;;5004475;28;20577;-62
2022/07/15 06:32:18;;;;;;;3.45;2.17;;;12.50;57.90;;;;;;5003777;28;20029;-65
2022/07/15 06:34:46;;;;;;;4.57;1.08;;;12.40;58.00;;;;;;5006264;28;20459;-62
2022/07/15 06:37:13;;;;;;;3.22;1.60;;;12.30;57.80;;;;;;5006860;28;20073;-64
2022/07/15 06:39:40;;;;;;;4.97;1.75;;;12.20;57.90;;;;;;5010679;28;20034;-63
2022/07/15 06:42:07;;;;;;;5.15;1.27;;;12.20;57.90;;;;;;5007687;28;20045;-62
2022/07/15 06:44:35;;;;;;;3.55;1.60;;;12.10;58.10;;;;;;5009159;28;20108;-63
2022/07/15 06:47:03;;;;;;;2.95;1.40;;;12.10;59.50;;;;;;5005787;28;20054;-63
2022/07/15 06:49:31;;;;;;;3.20;1.58;;;12.00;60.10;;;;;;5012497;28;20072;-63
2022/07/15 06:51:58;;;;;;;3.25;1.02;;;11.90;62.20;;;;;;5021161;28;20028;-62
2022/07/15 06:54:26;;;;;;;3.70;2.03;;;11.90;62.20;;;;;;5007061;28;20080;-63
2022/07/15 06:56:53;;;;;;;4.97;1.10;;;11.70;62.70;;;;;;5007149;28;20026;-63
2022/07/15 06:59:21;;;;;;;2.80;0.90;;;11.60;63.20;;;;;;5006221;28;20029;-63
2022/07/15 07:01:48;;;;;;;3.40;0.88;;;11.40;64.00;;;;;;5003511;28;20092;-63
2022/07/15 07:04:15;;;;;;;1.88;1.17;;;11.20;64.40;;;;;;5006159;28;20029;-62
2022/07/15 07:06:43;;;;;;;3.42;1.88;;;11.00;64.90;;;;;;5006922;28;20068;-62
2022/07/15 07:09:10;;;;;;;3.97;1.63;;;10.90;66.00;;;;;;5004151;28;20041;-64
2022/07/15 07:11:39;;;;;;;2.30;1.60;;;10.70;67.40;;;;;;5007812;28;20026;-61
2022/07/15 07:14:07;;;;;;;3.60;1.65;;;10.60;68.70;;;;;;5009382;28;20088;-63
2022/07/15 07:16:34;;;;;;;4.00;1.40;;;10.40;69.20;;;;;;5012174;28;20386;-63
2022/07/15 07:19:02;;;;;;;3.15;1.50;;;10.30;69.80;;;;;;5010990;28;20018;-63
2022/07/15 07:21:30;;;;;;;2.35;1.20;;;10.20;70.70;;;;;;5012446;28;20558;-67
2022/07/15 07:23:57;;;;;;;3.60;1.38;;;10.00;70.70;;;;;;5010104;28;20533;-61
2022/07/15 07:26:25;;;;;;;3.50;2.05;;;9.90;71.10;;;;;;5012591;28;20030;-61
2022/07/15 07:28:52;;;;;;;3.58;2.42;;;9.70;71.70;;;;;;5011216;28;20076;-61
2022/07/15 07:31:25;;;;;;;4.57;2.53;;;9.60;72.30;;;;;;5010829;28;20029;-62
2022/07/15 07:33:54;;;;;;;4.50;2.72;;;9.40;72.80;;;;;;5012202;28;20060;-62
2022/07/15 07:36:21;;;;;;;5.18;1.85;;;9.30;73.70;;;;;;5010617;28;20038;-61
2022/07/15 07:38:49;;;;;;;3.30;2.20;;;9.20;74.10;;;;;;5012174;28;20036;-62
2022/07/15 07:41:16;;;;;;;8.82;1.90;;;9.10;74.60;;;;;;5026775;28;20034;-62
2022/07/15 07:43:44;;;;;;;4.45;1.90;;;8.90;75.80;;;;;;5011970;28;20014;-62
2022/07/15 07:46:12;;;;;;;5.28;1.98;;;8.80;76.90;;;;;;5011626;28;20034;-62
2022/07/15 07:48:41;;;;;;;5.97;2.50;;;8.70;77.80;;;;;;5010677;28;20403;-62
2022/07/15 07:51:09;;;;;;;9.35;3.05;;;8.70;78.60;;;;;;5011946;28;20029;-62
2022/07/15 07:53:36;;;;;;;9.20;2.70;;;8.60;79.90;;;;;;5011802;28;20080;-62
2022/07/15 07:56:04;;;;;;;4.47;2.17;;;8.50;80.60;;;;;;5010179;28;20093;-62
2022/07/15 07:58:31;;;;;;;4.00;1.80;;;8.50;80.20;;;;;;5011673;28;20385;-62
2022/07/15 08:00:59;;;;;;;4.60;1.63;;;8.50;80.20;;;;;;5012166;28;20025;-62
2022/07/15 08:03:27;;;;;;;3.67;1.63;;;8.30;81.10;;;;;;5010778;28;20026;-62
2022/07/15 08:05:54;;;;;;;3.28;1.42;;;8.30;82.20;;;;;;5010585;28;20029;-61
2022/07/15 08:08:25;;;;;;;4.20;1.60;;;8.20;82.50;;;;;;5011499;28;20013;-62
2022/07/15 08:10:55;;;;;;;4.93;1.95;;;8.10;83.10;;;;;;5011094;28;20053;-67
2022/07/15 08:13:25;;;;;;;3.35;1.45;;;8.00;83.40;;;;;;4990111;28;20106;-63
2022/07/15 08:15:57;;;;;;;7.03;2.50;;;8.00;84.50;;;;;;4988756;28;20038;-62
2022/07/15 08:18:25;;;;;;;9.20;3.55;;;8.00;85.60;;;;;;5004872;28;20022;-62
2022/07/15 08:20:53;;;;;;;6.28;3.20;;;8.00;85.20;;;;;;4989237;28;20430;-62
2022/07/15 08:23:21;;;;;;;6.72;2.13;;;7.90;85.40;;;;;;4988874;28;20022;-62
2022/07/15 08:25:50;;;;;;;6.90;2.33;;;7.80;85.20;;;;;;4988999;28;20034;-62
2022/07/15 08:28:18;;;;;;;9.55;2.90;;;7.80;86.20;;;;;;4987751;28;20023;-62
2022/07/15 08:30:46;;;;;;;6.78;4.15;;;7.60;87.30;;;;;;4987804;28;20078;-62
2022/07/15 08:33:13;;;;;;;5.47;3.13;;;7.60;87.10;;;;;;4989014;28;20490;-63
2022/07/15 08:35:41;;;;;;;4.82;3.22;;;7.50;87.40;;;;;;4988545;28;20074;-63
2022/07/15 08:38:10;;;;;;;9.80;3.45;;;7.40;88.00;;;;;;4988813;28;20061;-60
2022/07/15 08:40:38;;;;;;;9.98;4.13;;;7.30;87.90;;;;;;4988955;28;20034;-63
2022/07/15 08:43:10;;;;;;;9.02;3.83;;;7.30;88.40;;;;;;4988871;28;20037;-63
2022/07/15 08:45:39;;;;;;;7.43;2.97;;;7.20;88.00;;;;;;4988796;28;20034;-62
2022/07/15 08:48:10;;;;;;;8.32;2.92;;;7.10;87.50;;;;;;5004518;28;20413;-63
2022/07/15 08:50:37;;;;;;;6.35;3.22;;;7.00;88.10;;;;;;5008305;28;20079;-62
2022/07/15 08:53:05;;;;;;;10.60;3.58;;;6.90;88.00;;;;;;5002654;28;20471;-63
2022/07/15 08:55:33;;;;;;;5.85;3.33;;;6.80;89.00;;;;;;5006622;28;20068;-63
2022/07/15 08:58:01;;;;;;;6.80;4.00;;;6.90;90.60;;;;;;5006483;28;20059;-62
2022/07/15 09:00:29;;;;;;;8.35;3.78;;;6.90;90.40;;;;;;5006676;28;20037;-62
2022/07/15 09:03:01;;;;;;;9.85;3.78;;;6.80;90.20;;;;;;5006106;28;20033;-62
2022/07/15 09:05:33;;;;;;;9.82;4.50;;;6.70;90.20;;;;;;5007361;28;20059;-64
2022/07/15 09:08:14;;;;;;;10.93;4.25;;;6.70;90.70;;;;;;5007555;28;20032;-63
2022/07/15 09:10:54;;;;;;;5.30;3.35;;;6.60;90.80;;;;;;5007847;28;20037;-62
2022/07/15 09:13:32;;;;;;;5.13;2.70;;;6.70;90.80;;;;;;5006558;28;20030;-62
2022/07/15 09:16:02;;;;;;;11.23;3.70;;;6.70;90.70;;;;;;5007497;28;20041;-63
2022/07/15 09:18:36;;;;;;;5.15;2.88;;;6.60;90.10;;;;;;5008351;28;20037;-61
2022/07/15 09:21:14;;;;;;;5.95;2.65;;;6.50;90.10;;;;;;5007415;28;20037;-62
2022/07/15 09:23:41;;;;;;;9.45;3.10;;;6.50;89.50;;;;;;5006283;28;20117;-62
2022/07/15 09:26:32;;;;;;;7.38;2.92;;;6.40;89.40;;;;;;5005991;28;20101;-62
2022/07/15 09:29:00;;;;;;;5.45;3.42;;;6.30;90.00;;;;;;5007140;28;20034;-65
2022/07/15 09:34:23;;;;;;;4.22;2.60;;;6.10;90.20;;;;;;5007122;28;20037;-62
2022/07/15 09:36:54;;;;;;;9.02;4.25;;;6.00;90.10;;;;;;5006299;28;20041;-62
2022/07/15 09:39:22;;;;;;;7.65;3.95;;;6.00;90.60;;;;;;5006801;28;20725;-62
2022/07/15 09:41:51;;;;;;;5.97;3.55;;;6.00;90.80;;;;;;5007404;28;20045;-62
2022/07/15 09:44:22;;;;;;;6.93;3.53;;;5.90;91.00;;;;;;5008440;28;20470;-62
2022/07/15 09:46:51;;;;;;;7.88;3.40;;;5.90;91.00;;;;;;5004536;28;20232;-62
2022/07/15 09:49:34;;;;;;;9.77;4.97;;;5.80;90.80;;;;;;5005221;28;20049;-63
2022/07/15 09:52:04;;;;;;;11.27;5.70;;;5.70;90.90;;;;;;5004561;28;20022;-62
2022/07/15 09:54:33;;;;;;;8.55;6.03;;;5.70;91.30;;;;;;5006367;28;20112;-63
2022/07/15 09:57:04;;;;;;;10.05;5.78;;;5.70;91.20;;;;;;5006808;28;20064;-61
2022/07/15 09:59:32;;;;;;;7.97;5.20;;;5.60;91.40;;;;;;5007073;28;20473;-61
2022/07/15 10:01:59;;;;;;;10.82;4.95;;;5.60;92.00;;;;;;5007676;28;20459;-62
2022/07/15 10:04:28;;;;;;;10.85;6.00;;;5.70;92.70;;;;;;5007139;28;20038;-61
2022/07/15 10:06:57;;;;;;;20.10;12.00;;;5.70;92.60;;;;;;5006298;28;20038;-62
2022/07/15 10:09:28;;;;;;;14.65;9.10;;;5.70;93.20;;;;;;5006912;28;20037;-61
2022/07/15 10:12:19;;;;;;;18.52;10.27;;;5.70;93.20;;;;;;5005997;28;20111;-61
2022/07/15 10:15:01;;;;;;;15.98;8.70;;;5.70;93.10;;;;;;5005401;28;20372;-62
2022/07/15 10:17:52;;;;;;;15.02;9.10;;;5.70;93.50;;;;;;5007431;28;20083;-63
2022/07/15 10:20:28;;;;;;;17.83;7.22;;;5.80;93.40;;;;;;5006632;28;20394;-64
2022/07/15 10:23:20;;;;;;;16.75;7.30;;;5.80;93.50;;;;;;4991875;28;20018;-71
2022/07/15 10:26:09;;;;;;;13.25;6.88;;;5.80;93.70;;;;;;5004901;28;20033;-60
2022/07/15 10:28:58;;;;;;;13.80;7.05;;;5.80;93.30;;;;;;5005195;28;20030;-62
2022/07/15 10:31:31;;;;;;;13.43;7.30;;;5.80;93.30;;;;;;5007214;28;20117;-62
2022/07/15 10:34:05;;;;;;;15.50;7.18;;;5.70;93.00;;;;;;5001929;28;20026;-62
2022/07/15 10:36:54;;;;;;;16.65;6.45;;;5.70;92.90;;;;;;4985826;28;20479;-63
2022/07/15 10:39:24;;;;;;;17.17;7.68;;;5.60;93.10;;;;;;5007237;28;20464;-62
2022/07/15 10:42:04;;;;;;;16.30;7.10;;;5.60;93.30;;;;;;5007097;28;20572;-62
2022/07/15 10:44:37;;;;;;;14.90;7.75;;;5.50;93.30;;;;;;5008026;28;20761;-63
2022/07/15 10:47:30;;;;;;;12.95;6.05;;;5.50;93.50;;;;;;5008097;28;20053;-62
2022/07/15 10:49:58;;;;;;;12.45;7.13;;;5.50;93.50;;;;;;5007387;28;20045;-62
2022/07/15 10:52:30;;;;;;;12.35;6.50;;;5.50;93.50;;;;;;5010490;28;20137;-62
2022/07/15 10:55:01;;;;;;;18.88;6.88;;;5.50;93.60;;;;;;5006511;28;20121;-61
2022/07/15 10:57:43;;;;;;;20.05;6.88;;;5.50;93.70;;;;;;5008131;28;20076;-62
2022/07/15 11:00:22;;;;;;;23.40;6.78;;;5.50;93.60;;;;;;5009129;28;20041;-63
2022/07/15 11:03:17;;;;;;;21.10;8.07;;;5.50;93.70;;;;;;5008530;28;20038;-63
2022/07/15 11:05:53;;;;;;;9.95;6.38;;;5.50;94.40;;;;;;4990717;28;20105;-62
2022/07/15 11:08:36;;;;;;;10.85;5.60;;;5.60;94.30;;;;;;4993460;28;20061;-62
2022/07/15 11:11:15;;;;;;;11.07;5.35;;;5.60;94.00;;;;;;5008837;28;20026;-63
2022/07/15 11:13:45;;;;;;;8.20;4.18;;;5.50;93.80;;;;;;5008408;28;20034;-63
2022/07/15 11:16:14;;;;;;;7.25;4.30;;;5.60;93.80;;;;;;5009549;28;20057;-63
2022/07/15 11:18:53;;;;;;;9.50;4.82;;;5.50;94.00;;;;;;5010065;28;20557;-62
2022/07/15 11:21:22;;;;;;;8.98;4.40;;;5.60;94.60;;;;;;5008466;28;20414;-62
2022/07/15 11:23:51;;;;;;;10.48;3.47;;;5.50;94.30;;;;;;5009194;28;20060;-61
2022/07/15 11:26:19;;;;;;;9.15;3.97;;;5.50;94.40;;;;;;5009008;28;20025;-62
2022/07/15 11:29:04;;;;;;;7.75;3.55;;;5.40;94.40;;;;;;5009599;28;20759;-62
2022/07/15 11:31:43;;;;;;;12.15;3.72;;;5.50;94.50;;;;;;5009182;28;20076;-67
2022/07/15 11:34:11;;;;;;;6.40;3.13;;;5.50;94.50;;;;;;5007355;28;20048;-62
2022/07/15 11:36:38;;;;;;;9.18;4.38;;;5.60;95.00;;;;;;5008852;28;20061;-61
2022/07/15 11:39:05;;;;;;;12.63;4.90;;;5.60;94.80;;;;;;5009031;28;20034;-62
2022/07/15 11:44:29;;;;;;;;;;;5.70;95.00;;;;;;5000434;28;20581;-62
2022/07/15 11:46:57;;;;;;;8.20;4.07;;;5.80;95.70;;;;;;5002063;28;19921;-62
2022/07/15 11:49:36;;;;;;;10.68;4.22;;;5.80;94.90;;;;;;5002796;28;20080;-62
2022/07/15 11:52:05;;;;;;;8.32;3.90;;;5.70;94.90;;;;;;5019602;28;20062;-63
2022/07/15 11:54:35;;;;;;;13.07;4.40;;;5.70;95.30;;;;;;4998341;28;20394;-62
2022/07/15 11:57:08;;;;;;;8.93;4.20;;;5.70;95.30;;;;;;4998995;28;20038;-61
2022/07/15 11:59:35;;;;;;;5.57;3.13;;;5.60;95.20;;;;;;5002226;28;20023;-62
2022/07/15 12:02:07;;;;;;;7.70;3.08;;;5.50;95.70;;;;;;4998685;28;20109;-63
2022/07/15 12:04:35;;;;;;;12.23;3.60;;;5.60;96.40;;;;;;5001488;28;20018;-62
2022/07/15 12:07:06;;;;;;;7.65;3.55;;;5.60;96.20;;;;;;5016145;28;20030;-64
2022/07/15 12:09:43;;;;;;;4.55;2.75;;;5.60;96.10;;;;;;4998619;28;20034;-61
2022/07/15 12:12:15;;;;;;;8.30;3.20;;;5.60;96.00;;;;;;5001044;28;20029;-64
2022/07/15 12:14:49;;;;;;;8.43;3.03;;;5.50;95.80;;;;;;4999982;28;20035;-61
2022/07/15 12:17:16;;;;;;;6.50;3.30;;;5.50;95.90;;;;;;5001716;28;20045;-61
2022/07/15 12:19:50;;;;;;;7.05;3.20;;;5.50;95.80;;;;;;4998163;28;20502;-63
2022/07/15 12:22:18;;;;;;;6.70;3.60;;;5.50;96.10;;;;;;5000718;28;20022;-62
2022/07/15 12:24:50;;;;;;;8.10;3.30;;;5.50;96.70;;;;;;5000121;28;20030;-64
2022/07/15 12:27:18;;;;;;;10.18;3.90;;;5.70;97.00;;;;;;5000374;28;20073;-63
2022/07/15 12:29:48;;;;;;;9.93;4.30;;;5.70;96.80;;;;;;5000207;28;20113;-63
2022/07/15 12:32:16;;;;;;;8.18;4.28;;;5.70;96.70;;;;;;5000141;28;20038;-62
2022/07/15 12:34:56;;;;;;;6.22;3.60;;;5.70;97.20;;;;;;4996517;28;20026;-62
2022/07/15 12:37:48;;;;;;;9.35;4.32;;;5.90;97.50;;;;;;5010434;28;20109;-62
2022/07/15 12:40:22;;;;;;;7.80;4.38;;;6.00;96.70;;;;;;5009481;28;20026;-62
2022/07/15 12:42:54;;;;;;;7.70;4.45;;;6.00;96.90;;;;;;5010969;28;20390;-63
2022/07/15 12:45:40;;;;;;;8.98;4.55;;;6.00;96.70;;;;;;5010449;28;20483;-63
2022/07/15 12:48:16;;;;;;;9.50;5.20;;;5.90;96.50;;;;;;5010530;28;20056;-63
2022/07/15 12:50:52;;;;;;;8.88;5.35;;;5.90;96.50;;;;;;5009327;28;20022;-62
2022/07/15 12:53:21;;;;;;;9.57;5.80;;;5.90;96.50;;;;;;5009646;28;20507;-63
2022/07/15 12:55:51;;;;;;;8.45;5.60;;;5.80;96.50;;;;;;5010084;28;20036;-62
2022/07/15 12:58:25;;;;;;;11.50;6.03;;;5.70;95.80;;;;;;5009157;28;20471;-62
2022/07/15 13:00:52;;;;;;;9.65;5.78;;;5.60;95.70;;;;;;5009032;28;20037;-63
2022/07/15 13:03:23;;;;;;;10.63;6.00;;;5.50;96.10;;;;;;5010420;28;20033;-63
2022/07/15 13:05:52;;;;;;;8.30;4.75;;;5.30;95.40;;;;;;5010064;28;20045;-63
2022/07/15 13:08:21;;;;;;;9.95;4.88;;;5.20;95.70;;;;;;5009629;28;20113;-63
2022/07/15 13:10:56;;;;;;;12.32;4.70;;;5.00;95.40;;;;;;5009982;28;20026;-63
2022/07/15 13:13:26;;;;;;;9.20;4.80;;;4.90;95.50;;;;;;5007513;28;20659;-63
2022/07/15 13:15:53;;;;;;;13.80;7.18;;;4.70;95.70;;;;;;5008610;28;20045;-62
2022/07/15 13:18:21;;;;;;;16.88;7.68;;;4.60;95.70;;;;;;5008469;28;20487;-62